Florencia — IBPD — position and weather

sailwx.info

Track history (hours):
 
Tides and Currents Weather Stations Pressure Air Temp Water Temp Dewpoint Dewpoint Depression Visibility Wind Speed Wind Dir Waves Ship Positions

Florencia

Last reported at 2017-Oct-18 00:00 UTC. Time now 2017-Oct-18 00:22 UTC.
Position N 38°05' E 015°34'.

Length 186 m; draft 6 m.

Type: Passenger vessel. MMSI: 247105900.

Date/timePositionNaut miles runAvg speedWind from/ knotsBaromVisibWave heightAir tempDewpointWater temp
2017-Oct-18 00:00N 38°05' E 015°34'1121.4
2017-Oct-17 23:30N 37°55' E 015°29'1221.4
2017-Oct-17 22:57N 37°44' E 015°23'3 0.2
2017-Oct-17 05:35N 37°41' E 015°20'221.0
2017-Oct-17 05:30N 37°43' E 015°21'1121.9
2017-Oct-17 05:00N 37°53' E 015°26'1122.2
2017-Oct-17 04:30N 38°03' E 015°31'1020.7
2017-Oct-17 04:00N 38°13' E 015°36'816.4
2017-Oct-17 03:30N 38°21' E 015°38'1121.9
2017-Oct-17 03:00N 38°31' E 015°32'1121.6
2017-Oct-17 02:29N 38°41' E 015°26'1021.3
2017-Oct-17 02:00N 38°51' E 015°21'1121.5
2017-Oct-17 01:30N 39°00' E 015°16'2421.3
2017-Oct-17 00:24N 39°21' E 015°02'2521.3
2017-Oct-16 23:13N 39°44' E 014°47'1221.4
2017-Oct-16 22:40N 39°55' E 014°41'2221.3
2017-Oct-16 21:37N 40°15' E 014°28'321.8
2017-Oct-16 21:30N 40°17' E 014°27'35 4.8
2017-Oct-16 14:22N 40°50' E 014°16'0 0.0
2017-Oct-16 10:40N 40°50' E 014°16'0 0.0
2017-Oct-16 10:22N 40°50' E 014°16'0 0.0
2017-Oct-16 09:58N 40°50' E 014°16'0 0.0
2017-Oct-16 06:53N 40°50' E 014°16'2 4.0
2017-Oct-16 06:30N 40°49' E 014°17'1021.1
2017-Oct-16 06:00N 40°39' E 014°17'5721.3
2017-Oct-16 03:20N 39°47' E 014°47'2021.3
2017-Oct-16 02:24N 39°29' E 014°59'2721.3
2017-Oct-16 01:06N 39°04' E 015°14'221.3
2017-Oct-16 01:00N 39°02' E 015°15'1121.1
2017-Oct-16 00:30N 38°52' E 015°21'1121.6
2017-Oct-16 00:00N 38°43' E 015°27'1121.5
2017-Oct-15 23:31N 38°33' E 015°33'1121.5
2017-Oct-15 23:01N 38°24' E 015°39'917.2
2017-Oct-15 22:31N 38°15' E 015°40'1019.7
2017-Oct-15 22:01N 38°06' E 015°35'1121.2
2017-Oct-15 21:31N 37°56' E 015°30'1121.1
2017-Oct-15 21:00N 37°46' E 015°24'1121.3
2017-Oct-15 20:30N 37°37' E 015°18'12 2.1
2017-Oct-15 14:46N 37°29' E 015°06'0 0.0
2017-Oct-15 13:59N 37°29' E 015°06'0 0.0
2017-Oct-15 06:33N 37°29' E 015°06'0 0.6
2017-Oct-15 06:30N 37°29' E 015°06'1014.5
2017-Oct-15 05:49N 37°35' E 015°16'721.9
2017-Oct-15 05:30N 37°41' E 015°20'1122.2
2017-Oct-15 05:00N 37°51' E 015°25'1122.3
2017-Oct-15 04:30N 38°02' E 015°30'1121.6
2017-Oct-15 04:00N 38°12' E 015°35'918.3
2017-Oct-15 03:30N 38°20' E 015°39'1019.6
2017-Oct-15 03:00N 38°29' E 015°34'1020.1
2017-Oct-15 02:30N 38°38' E 015°28'1122.0
2017-Oct-15 02:00N 38°48' E 015°22'1121.6
2017-Oct-15 01:30N 38°58' E 015°16'2621.4
2017-Oct-15 00:17N 39°21' E 015°01'621.4
2017-Oct-15 00:00N 39°26' E 014°57'1921.2
2017-Oct-14 23:05N 39°44' E 014°48'321.2
2017-Oct-14 22:58N 39°46' E 014°46'1021.3
2017-Oct-14 22:29N 39°56' E 014°40'1721.3
2017-Oct-14 21:42N 40°11' E 014°31'4113.5
2017-Oct-14 18:39N 40°50' E 014°16'0 0.0
2017-Oct-14 18:27N 40°50' E 014°16'0 0.0
2017-Oct-14 16:45N 40°50' E 014°16'0 0.0
2017-Oct-14 16:27N 40°50' E 014°16'0 0.0
2017-Oct-14 15:57N 40°50' E 014°16'0 0.0
2017-Oct-14 14:15N 40°50' E 014°16'0 0.0
2017-Oct-14 13:57N 40°50' E 014°16'0 0.0
2017-Oct-14 13:15N 40°50' E 014°16'0 0.0
2017-Oct-14 11:45N 40°50' E 014°16'0 0.0
2017-Oct-14 11:21N 40°50' E 014°16'0 0.0
2017-Oct-14 10:45N 40°50' E 014°16'0 0.0
2017-Oct-14 10:21N 40°50' E 014°16'0 0.0
2017-Oct-14 06:51N 40°50' E 014°16'0 0.0
2017-Oct-14 06:21N 40°50' E 014°16'0 0.0
2017-Oct-14 06:00N 40°50' E 014°16'8919.0
2017-Oct-14 01:18N 39°28' E 014°59'621.5
2017-Oct-14 01:00N 39°22' E 015°03'2821.6
2017-Oct-13 23:42N 38°57' E 015°19'421.3
2017-Oct-13 23:30N 38°53' E 015°21'1121.2
2017-Oct-13 22:59N 38°43' E 015°27'1021.3
2017-Oct-13 22:30N 38°34' E 015°33'1121.3
2017-Oct-13 22:00N 38°24' E 015°39'918.0
2017-Oct-13 21:31N 38°15' E 015°41'918.8
2017-Oct-13 21:01N 38°07' E 015°35'1020.8
2017-Oct-13 20:30N 37°58' E 015°30'1121.9
2017-Oct-13 20:00N 37°47' E 015°24'1121.8
2017-Oct-13 19:30N 37°38' E 015°18'13 1.0
2017-Oct-13 06:41N 37°29' E 015°06'311.5
2017-Oct-13 06:27N 37°28' E 015°09'921.0
2017-Oct-13 06:00N 37°36' E 015°16'1121.4
2017-Oct-13 05:30N 37°46' E 015°22'1121.8
2017-Oct-13 05:01N 37°56' E 015°27'1121.7
2017-Oct-13 04:30N 38°06' E 015°33'1121.8
2017-Oct-13 04:01N 38°15' E 015°39'917.0
2017-Oct-13 03:30N 38°24' E 015°38'1122.1
2017-Oct-13 03:00N 38°34' E 015°31'1122.2
2017-Oct-13 02:30N 38°43' E 015°25'1121.5
2017-Oct-13 02:00N 38°53' E 015°19'1021.0
2017-Oct-13 01:30N 39°03' E 015°13'2021.1
2017-Oct-13 00:32N 39°21' E 015°02'121.4
2017-Oct-13 00:30N 39°22' E 015°02'2521.1
2017-Oct-12 23:20N 39°44' E 014°48'821.4
2017-Oct-12 22:56N 39°52' E 014°42'6220.0
2017-Oct-12 19:49N 40°50' E 014°16'0 0.0
2017-Oct-12 09:05N 40°50' E 014°16'0 0.1
2017-Oct-12 08:58N 40°50' E 014°16'4 9.2
2017-Oct-12 08:30N 40°46' E 014°17'2021.2
2017-Oct-12 07:33N 40°26' E 014°22'3521.3
2017-Oct-12 05:55N 39°55' E 014°42'3021.3
2017-Oct-12 04:30N 39°28' E 014°59'2821.5
2017-Oct-12 03:12N 39°03' E 015°15'921.2
2017-Oct-12 02:46N 38°54' E 015°20'3021.2
2017-Oct-12 01:22N 38°28' E 015°36'720.8
2017-Oct-12 01:00N 38°21' E 015°41'815.7
2017-Oct-12 00:31N 38°14' E 015°37'1020.1
2017-Oct-12 00:00N 38°04' E 015°34'1121.5
2017-Oct-11 23:30N 37°54' E 015°28'1121.5
2017-Oct-11 22:59N 37°44' E 015°22'1121.8
2017-Oct-11 22:29N 37°35' E 015°15'1015.9
2017-Oct-11 21:53N 37°29' E 015°06'117 5.4
2017-Oct-11 00:00N 39°26' E 014°59'8621.2
2017-Oct-10 19:58N 40°45' E 014°17'6 0.5
2017-Oct-10 08:58N 40°50' E 014°16'612.9
2017-Oct-10 08:30N 40°45' E 014°17'1920.9
2017-Oct-10 07:36N 40°26' E 014°22'3321.5
2017-Oct-10 06:03N 39°56' E 014°41'3121.2
2017-Oct-10 04:37N 39°28' E 014°58'321.3
2017-Oct-10 04:29N 39°26' E 014°60'2721.2
2017-Oct-10 03:11N 39°01' E 015°15'521.3
2017-Oct-10 02:58N 38°57' E 015°18'1021.4
2017-Oct-10 02:30N 38°48' E 015°25'1121.4
2017-Oct-10 01:59N 38°39' E 015°31'1020.9
2017-Oct-10 01:31N 38°30' E 015°37'1121.0
2017-Oct-10 01:00N 38°20' E 015°43'917.8
2017-Oct-10 00:30N 38°13' E 015°37'1021.1
2017-Oct-10 00:00N 38°03' E 015°33'1121.7
2017-Oct-09 23:30N 37°53' E 015°27'1121.3
2017-Oct-09 22:59N 37°43' E 015°21'1021.3
2017-Oct-09 22:30N 37°33' E 015°16'917.2
2017-Oct-09 22:00N 37°28' E 015°07'1 0.1
2017-Oct-09 05:22N 37°29' E 015°06'0 0.2
2017-Oct-09 04:54N 37°29' E 015°06'5 8.6
2017-Oct-09 04:23N 37°30' E 015°11'718.1
2017-Oct-09 04:00N 37°35' E 015°17'1020.8
2017-Oct-09 03:30N 37°44' E 015°22'1020.3
2017-Oct-09 03:00N 37°54' E 015°27'1020.5
2017-Oct-09 02:30N 38°03' E 015°31'1020.7
2017-Oct-09 02:01N 38°13' E 015°36'917.6
2017-Oct-09 01:30N 38°22' E 015°38'1121.8
2017-Oct-09 00:59N 38°32' E 015°32'1121.7
2017-Oct-09 00:30N 38°42' E 015°26'1121.0
2017-Oct-08 23:59N 38°51' E 015°21'1120.9
2017-Oct-08 23:28N 39°01' E 015°14'2220.9
2017-Oct-08 22:24N 39°21' E 015°02'6420.6
2017-Oct-08 19:17N 40°19' E 014°26'620.3
2017-Oct-08 18:59N 40°24' E 014°22'1220.3
2017-Oct-08 18:23N 40°36' E 014°17'820.8
2017-Oct-08 18:00N 40°44' E 014°17'713.1
2017-Oct-08 17:29N 40°50' E 014°16'0 0.0
2017-Oct-08 17:00N 40°50' E 014°16'0 0.0
2017-Oct-08 16:30N 40°50' E 014°16'0 0.0
2017-Oct-08 16:00N 40°50' E 014°16'0 0.0
2017-Oct-08 15:29N 40°50' E 014°16'0 0.0
2017-Oct-08 15:00N 40°50' E 014°16'0 0.0
2017-Oct-08 14:28N 40°50' E 014°16'0 0.0
2017-Oct-08 14:00N 40°50' E 014°16'0 0.0
2017-Oct-08 13:29N 40°50' E 014°16'0 0.0
2017-Oct-08 13:00N 40°50' E 014°16'0 0.0
2017-Oct-08 12:30N 40°50' E 014°16'0 0.0
2017-Oct-08 12:00N 40°50' E 014°16'0 0.0
2017-Oct-08 11:29N 40°50' E 014°16'0 0.0
2017-Oct-08 11:00N 40°50' E 014°16'0 0.0
2017-Oct-08 10:29N 40°50' E 014°16'0 0.0
2017-Oct-08 09:58N 40°50' E 014°16'0 0.0
2017-Oct-08 09:30N 40°50' E 014°16'3 6.9
2017-Oct-08 09:00N 40°47' E 014°17'1121.4
2017-Oct-08 08:30N 40°36' E 014°17'1121.1
2017-Oct-08 08:00N 40°26' E 014°22'6521.2
2017-Oct-08 04:56N 39°28' E 014°59'2920.8
2017-Oct-08 03:32N 39°01' E 015°14'121.0
2017-Oct-08 03:30N 39°01' E 015°15'1020.4
2017-Oct-08 03:00N 38°52' E 015°20'1020.4
2017-Oct-08 02:30N 38°42' E 015°26'1020.4
2017-Oct-08 02:00N 38°34' E 015°33'1020.3
2017-Oct-08 01:30N 38°25' E 015°39'917.7
2017-Oct-08 01:00N 38°17' E 015°43'917.7
2017-Oct-08 00:31N 38°10' E 015°37'1020.0
2017-Oct-08 00:00N 38°00' E 015°32'  
Track history (hours):
 
Tides and Currents Weather Stations Pressure Air Temp Water Temp Dewpoint Dewpoint Depression Visibility Wind Speed Wind Dir Waves Ship Positions

Florencia

Last reported at 2017-Oct-18 00:00 UTC. Time now 2017-Oct-18 00:22 UTC.
Position N 38°05' E 015°34'.

Length 186 m; draft 6 m.

Type: Passenger vessel. MMSI: 247105900.

Date/timePositionNaut miles runAvg speedWind from/ knotsBaromVisibWave heightAir tempDewpointWater temp
2017-Oct-18 00:00N 38°05' E 015°34'1121.4
2017-Oct-17 23:30N 37°55' E 015°29'1221.4
2017-Oct-17 22:57N 37°44' E 015°23'3 0.2
2017-Oct-17 05:35N 37°41' E 015°20'221.0
2017-Oct-17 05:30N 37°43' E 015°21'1121.9
2017-Oct-17 05:00N 37°53' E 015°26'1122.2
2017-Oct-17 04:30N 38°03' E 015°31'1020.7
2017-Oct-17 04:00N 38°13' E 015°36'816.4
2017-Oct-17 03:30N 38°21' E 015°38'1121.9
2017-Oct-17 03:00N 38°31' E 015°32'1121.6
2017-Oct-17 02:29N 38°41' E 015°26'1021.3
2017-Oct-17 02:00N 38°51' E 015°21'1121.5
2017-Oct-17 01:30N 39°00' E 015°16'2421.3
2017-Oct-17 00:24N 39°21' E 015°02'2521.3
2017-Oct-16 23:13N 39°44' E 014°47'1221.4
2017-Oct-16 22:40N 39°55' E 014°41'2221.3
2017-Oct-16 21:37N 40°15' E 014°28'321.8
2017-Oct-16 21:30N 40°17' E 014°27'35 4.8
2017-Oct-16 14:22N 40°50' E 014°16'0 0.0
2017-Oct-16 10:40N 40°50' E 014°16'0 0.0
2017-Oct-16 10:22N 40°50' E 014°16'0 0.0
2017-Oct-16 09:58N 40°50' E 014°16'0 0.0
2017-Oct-16 06:53N 40°50' E 014°16'2 4.0
2017-Oct-16 06:30N 40°49' E 014°17'1021.1
2017-Oct-16 06:00N 40°39' E 014°17'5721.3
2017-Oct-16 03:20N 39°47' E 014°47'2021.3
2017-Oct-16 02:24N 39°29' E 014°59'2721.3
2017-Oct-16 01:06N 39°04' E 015°14'221.3
2017-Oct-16 01:00N 39°02' E 015°15'1121.1
2017-Oct-16 00:30N 38°52' E 015°21'1121.6
2017-Oct-16 00:00N 38°43' E 015°27'1121.5
2017-Oct-15 23:31N 38°33' E 015°33'1121.5
2017-Oct-15 23:01N 38°24' E 015°39'917.2
2017-Oct-15 22:31N 38°15' E 015°40'1019.7
2017-Oct-15 22:01N 38°06' E 015°35'1121.2
2017-Oct-15 21:31N 37°56' E 015°30'1121.1
2017-Oct-15 21:00N 37°46' E 015°24'1121.3
2017-Oct-15 20:30N 37°37' E 015°18'12 2.1
2017-Oct-15 14:46N 37°29' E 015°06'0 0.0
2017-Oct-15 13:59N 37°29' E 015°06'0 0.0
2017-Oct-15 06:33N 37°29' E 015°06'0 0.6
2017-Oct-15 06:30N 37°29' E 015°06'1014.5
2017-Oct-15 05:49N 37°35' E 015°16'721.9
2017-Oct-15 05:30N 37°41' E 015°20'1122.2
2017-Oct-15 05:00N 37°51' E 015°25'1122.3
2017-Oct-15 04:30N 38°02' E 015°30'1121.6
2017-Oct-15 04:00N 38°12' E 015°35'918.3
2017-Oct-15 03:30N 38°20' E 015°39'1019.6
2017-Oct-15 03:00N 38°29' E 015°34'1020.1
2017-Oct-15 02:30N 38°38' E 015°28'1122.0
2017-Oct-15 02:00N 38°48' E 015°22'1121.6
2017-Oct-15 01:30N 38°58' E 015°16'2621.4
2017-Oct-15 00:17N 39°21' E 015°01'621.4
2017-Oct-15 00:00N 39°26' E 014°57'1921.2
2017-Oct-14 23:05N 39°44' E 014°48'321.2
2017-Oct-14 22:58N 39°46' E 014°46'1021.3
2017-Oct-14 22:29N 39°56' E 014°40'1721.3
2017-Oct-14 21:42N 40°11' E 014°31'4113.5
2017-Oct-14 18:39N 40°50' E 014°16'0 0.0
2017-Oct-14 18:27N 40°50' E 014°16'0 0.0
2017-Oct-14 16:45N 40°50' E 014°16'0 0.0
2017-Oct-14 16:27N 40°50' E 014°16'0 0.0
2017-Oct-14 15:57N 40°50' E 014°16'0 0.0
2017-Oct-14 14:15N 40°50' E 014°16'0 0.0
2017-Oct-14 13:57N 40°50' E 014°16'0 0.0
2017-Oct-14 13:15N 40°50' E 014°16'0 0.0
2017-Oct-14 11:45N 40°50' E 014°16'0 0.0
2017-Oct-14 11:21N 40°50' E 014°16'0 0.0
2017-Oct-14 10:45N 40°50' E 014°16'0 0.0
2017-Oct-14 10:21N 40°50' E 014°16'0 0.0
2017-Oct-14 06:51N 40°50' E 014°16'0 0.0
2017-Oct-14 06:21N 40°50' E 014°16'0 0.0
2017-Oct-14 06:00N 40°50' E 014°16'8919.0
2017-Oct-14 01:18N 39°28' E 014°59'621.5
2017-Oct-14 01:00N 39°22' E 015°03'2821.6
2017-Oct-13 23:42N 38°57' E 015°19'421.3
2017-Oct-13 23:30N 38°53' E 015°21'1121.2
2017-Oct-13 22:59N 38°43' E 015°27'1021.3
2017-Oct-13 22:30N 38°34' E 015°33'1121.3
2017-Oct-13 22:00N 38°24' E 015°39'918.0
2017-Oct-13 21:31N 38°15' E 015°41'918.8
2017-Oct-13 21:01N 38°07' E 015°35'1020.8
2017-Oct-13 20:30N 37°58' E 015°30'1121.9
2017-Oct-13 20:00N 37°47' E 015°24'1121.8
2017-Oct-13 19:30N 37°38' E 015°18'13 1.0
2017-Oct-13 06:41N 37°29' E 015°06'311.5
2017-Oct-13 06:27N 37°28' E 015°09'921.0
2017-Oct-13 06:00N 37°36' E 015°16'1121.4
2017-Oct-13 05:30N 37°46' E 015°22'1121.8
2017-Oct-13 05:01N 37°56' E 015°27'1121.7
2017-Oct-13 04:30N 38°06' E 015°33'1121.8
2017-Oct-13 04:01N 38°15' E 015°39'917.0
2017-Oct-13 03:30N 38°24' E 015°38'1122.1
2017-Oct-13 03:00N 38°34' E 015°31'1122.2
2017-Oct-13 02:30N 38°43' E 015°25'1121.5
2017-Oct-13 02:00N 38°53' E 015°19'1021.0
2017-Oct-13 01:30N 39°03' E 015°13'2021.1
2017-Oct-13 00:32N 39°21' E 015°02'121.4
2017-Oct-13 00:30N 39°22' E 015°02'2521.1
2017-Oct-12 23:20N 39°44' E 014°48'821.4
2017-Oct-12 22:56N 39°52' E 014°42'6220.0
2017-Oct-12 19:49N 40°50' E 014°16'0 0.0
2017-Oct-12 09:05N 40°50' E 014°16'0 0.1
2017-Oct-12 08:58N 40°50' E 014°16'4 9.2
2017-Oct-12 08:30N 40°46' E 014°17'2021.2
2017-Oct-12 07:33N 40°26' E 014°22'3521.3
2017-Oct-12 05:55N 39°55' E 014°42'3021.3
2017-Oct-12 04:30N 39°28' E 014°59'2821.5
2017-Oct-12 03:12N 39°03' E 015°15'921.2
2017-Oct-12 02:46N 38°54' E 015°20'3021.2
2017-Oct-12 01:22N 38°28' E 015°36'720.8
2017-Oct-12 01:00N 38°21' E 015°41'815.7
2017-Oct-12 00:31N 38°14' E 015°37'1020.1
2017-Oct-12 00:00N 38°04' E 015°34'1121.5
2017-Oct-11 23:30N 37°54' E 015°28'1121.5
2017-Oct-11 22:59N 37°44' E 015°22'1121.8
2017-Oct-11 22:29N 37°35' E 015°15'1015.9
2017-Oct-11 21:53N 37°29' E 015°06'117 5.4
2017-Oct-11 00:00N 39°26' E 014°59'8621.2
2017-Oct-10 19:58N 40°45' E 014°17'6 0.5
2017-Oct-10 08:58N 40°50' E 014°16'612.9
2017-Oct-10 08:30N 40°45' E 014°17'1920.9
2017-Oct-10 07:36N 40°26' E 014°22'3321.5
2017-Oct-10 06:03N 39°56' E 014°41'3121.2
2017-Oct-10 04:37N 39°28' E 014°58'321.3
2017-Oct-10 04:29N 39°26' E 014°60'2721.2
2017-Oct-10 03:11N 39°01' E 015°15'521.3
2017-Oct-10 02:58N 38°57' E 015°18'1021.4
2017-Oct-10 02:30N 38°48' E 015°25'1121.4
2017-Oct-10 01:59N 38°39' E 015°31'1020.9
2017-Oct-10 01:31N 38°30' E 015°37'1121.0
2017-Oct-10 01:00N 38°20' E 015°43'917.8
2017-Oct-10 00:30N 38°13' E 015°37'1021.1
2017-Oct-10 00:00N 38°03' E 015°33'1121.7
2017-Oct-09 23:30N 37°53' E 015°27'1121.3
2017-Oct-09 22:59N 37°43' E 015°21'1021.3
2017-Oct-09 22:30N 37°33' E 015°16'917.2
2017-Oct-09 22:00N 37°28' E 015°07'1 0.1
2017-Oct-09 05:22N 37°29' E 015°06'0 0.2
2017-Oct-09 04:54N 37°29' E 015°06'5 8.6
2017-Oct-09 04:23N 37°30' E 015°11'718.1
2017-Oct-09 04:00N 37°35' E 015°17'1020.8
2017-Oct-09 03:30N 37°44' E 015°22'1020.3
2017-Oct-09 03:00N 37°54' E 015°27'1020.5
2017-Oct-09 02:30N 38°03' E 015°31'1020.7
2017-Oct-09 02:01N 38°13' E 015°36'917.6
2017-Oct-09 01:30N 38°22' E 015°38'1121.8
2017-Oct-09 00:59N 38°32' E 015°32'1121.7
2017-Oct-09 00:30N 38°42' E 015°26'1121.0
2017-Oct-08 23:59N 38°51' E 015°21'1120.9
2017-Oct-08 23:28N 39°01' E 015°14'2220.9
2017-Oct-08 22:24N 39°21' E 015°02'6420.6
2017-Oct-08 19:17N 40°19' E 014°26'620.3
2017-Oct-08 18:59N 40°24' E 014°22'1220.3
2017-Oct-08 18:23N 40°36' E 014°17'820.8
2017-Oct-08 18:00N 40°44' E 014°17'713.1
2017-Oct-08 17:29N 40°50' E 014°16'0 0.0
2017-Oct-08 17:00N 40°50' E 014°16'0 0.0
2017-Oct-08 16:30N 40°50' E 014°16'0 0.0
2017-Oct-08 16:00N 40°50' E 014°16'0 0.0
2017-Oct-08 15:29N 40°50' E 014°16'0 0.0
2017-Oct-08 15:00N 40°50' E 014°16'0 0.0
2017-Oct-08 14:28N 40°50' E 014°16'0 0.0
2017-Oct-08 14:00N 40°50' E 014°16'0 0.0
2017-Oct-08 13:29N 40°50' E 014°16'0 0.0
2017-Oct-08 13:00N 40°50' E 014°16'0 0.0
2017-Oct-08 12:30N 40°50' E 014°16'0 0.0
2017-Oct-08 12:00N 40°50' E 014°16'0 0.0
2017-Oct-08 11:29N 40°50' E 014°16'0 0.0
2017-Oct-08 11:00N 40°50' E 014°16'0 0.0
2017-Oct-08 10:29N 40°50' E 014°16'0 0.0
2017-Oct-08 09:58N 40°50' E 014°16'0 0.0
2017-Oct-08 09:30N 40°50' E 014°16'3 6.9
2017-Oct-08 09:00N 40°47' E 014°17'1121.4
2017-Oct-08 08:30N 40°36' E 014°17'1121.1
2017-Oct-08 08:00N 40°26' E 014°22'6521.2
2017-Oct-08 04:56N 39°28' E 014°59'2920.8
2017-Oct-08 03:32N 39°01' E 015°14'121.0
2017-Oct-08 03:30N 39°01' E 015°15'1020.4
2017-Oct-08 03:00N 38°52' E 015°20'1020.4
2017-Oct-08 02:30N 38°42' E 015°26'1020.4
2017-Oct-08 02:00N 38°34' E 015°33'1020.3
2017-Oct-08 01:30N 38°25' E 015°39'917.7
2017-Oct-08 01:00N 38°17' E 015°43'917.7
2017-Oct-08 00:31N 38°10' E 015°37'1020.0
2017-Oct-08 00:00N 38°00' E 015°32'  

Dump ship's entire track history